Time;durP1;ratioP1;P1;durP2;ratioP2;P2;SDS_P1;SDS_P2;PMS_P1;PMS_P2;Temp;Humidity;BMP_temperature;BMP_pressure;BME280_temperature;BME280_humidity;BME280_pressure;Samples;Min_cycle;Max_cycle;Signal;HPM_P1;HPM_P2
2021/10/05 00:01:50;;;;;;;2.70;1.42;;;13.90;72.70;;;;;;5089651;28;20039;-73
2021/10/05 00:04:15;;;;;;;3.65;1.60;;;13.90;72.80;;;;;;5090757;28;20067;-73
2021/10/05 00:06:41;;;;;;;1.88;1.40;;;13.80;72.80;;;;;;5087395;28;20040;-73
2021/10/05 00:09:07;;;;;;;5.20;1.40;;;13.80;72.90;;;;;;5087744;28;20474;-73
2021/10/05 00:11:33;;;;;;;4.07;1.45;;;13.80;72.90;;;;;;5088132;28;20024;-73
2021/10/05 00:13:59;;;;;;;4.35;1.55;;;13.70;73.00;;;;;;5085253;28;20477;-72
2021/10/05 00:16:24;;;;;;;3.58;1.65;;;13.70;73.10;;;;;;5084825;28;20032;-72
2021/10/05 00:18:50;;;;;;;2.80;1.50;;;13.70;73.20;;;;;;5085605;28;20039;-73
2021/10/05 00:21:17;;;;;;;2.88;1.58;;;13.70;73.30;;;;;;5084030;28;20645;-73
2021/10/05 00:23:43;;;;;;;4.65;1.50;;;13.60;73.40;;;;;;5089376;28;20054;-72
2021/10/05 00:26:09;;;;;;;5.97;1.95;;;13.60;73.40;;;;;;5086074;28;20035;-72
2021/10/05 00:28:34;;;;;;;4.22;1.75;;;13.60;73.40;;;;;;5079928;28;20041;-72
2021/10/05 00:31:00;;;;;;;4.03;1.65;;;13.60;73.60;;;;;;5090338;28;20059;-72
2021/10/05 00:33:26;;;;;;;2.80;1.50;;;13.50;73.60;;;;;;5068298;28;20482;-72
2021/10/05 00:35:52;;;;;;;3.55;1.30;;;13.50;73.60;;;;;;5088016;28;20052;-72
2021/10/05 00:38:17;;;;;;;5.30;1.90;;;13.50;73.50;;;;;;5088071;28;20038;-72
2021/10/05 00:40:43;;;;;;;3.92;1.50;;;13.40;73.60;;;;;;5085681;28;20385;-73
2021/10/05 00:43:09;;;;;;;7.13;1.85;;;13.40;73.70;;;;;;5090041;28;20024;-73
2021/10/05 00:45:36;;;;;;;3.15;1.73;;;13.40;73.80;;;;;;5088915;28;20092;-71
2021/10/05 00:48:02;;;;;;;3.08;1.50;;;13.40;73.90;;;;;;5083750;28;20040;-72
2021/10/05 00:50:28;;;;;;;3.75;1.70;;;13.30;74.00;;;;;;5084648;28;20110;-72
2021/10/05 00:52:54;;;;;;;2.85;1.40;;;13.30;74.00;;;;;;5100654;28;20058;-74
2021/10/05 00:55:20;;;;;;;4.10;1.70;;;13.20;74.00;;;;;;5086045;28;20031;-74
2021/10/05 00:57:46;;;;;;;2.42;1.58;;;13.30;74.10;;;;;;5091804;28;20028;-72
2021/10/05 01:00:12;;;;;;;3.92;1.52;;;13.20;74.20;;;;;;5087603;28;20076;-72
2021/10/05 01:02:38;;;;;;;4.88;1.58;;;13.20;74.30;;;;;;5104394;28;20039;-72
2021/10/05 01:05:07;;;;;;;2.75;1.60;;;13.10;74.40;;;;;;5070732;28;20035;-73
2021/10/05 01:07:33;;;;;;;3.85;1.85;;;13.10;74.60;;;;;;5085194;28;20061;-72
2021/10/05 01:09:59;;;;;;;3.28;1.50;;;13.10;74.60;;;;;;5089603;28;20027;-73
2021/10/05 01:12:24;;;;;;;5.95;1.65;;;13.10;74.70;;;;;;5090107;28;20255;-74
2021/10/05 01:14:50;;;;;;;4.07;1.60;;;13.10;74.60;;;;;;5107715;28;20106;-72
2021/10/05 01:17:16;;;;;;;3.50;1.70;;;13.10;74.60;;;;;;5108057;28;20031;-73
2021/10/05 01:19:42;;;;;;;4.53;1.75;;;13.10;74.70;;;;;;5106369;28;20108;-73
2021/10/05 01:22:08;;;;;;;3.72;1.90;;;13.10;74.80;;;;;;5087430;28;20023;-72
2021/10/05 01:24:34;;;;;;;4.90;1.90;;;13.00;74.70;;;;;;5090735;28;20072;-72
2021/10/05 01:27:00;;;;;;;4.28;1.50;;;13.00;74.70;;;;;;5104099;28;20040;-72
2021/10/05 01:29:28;;;;;;;5.20;1.70;;;13.00;74.80;;;;;;5108291;28;20058;-72
2021/10/05 01:31:57;;;;;;;5.63;1.88;;;13.00;74.80;;;;;;5108808;28;20441;-73
2021/10/05 01:34:24;;;;;;;5.13;1.55;;;12.90;74.90;;;;;;5089894;28;20495;-72
2021/10/05 01:36:51;;;;;;;5.05;2.00;;;12.90;75.10;;;;;;5108337;28;20110;-72
2021/10/05 01:39:25;;;;;;;2.88;1.63;;;12.90;75.20;;;;;;5101575;28;20043;-72
2021/10/05 01:41:55;;;;;;;3.00;1.80;;;12.90;75.40;;;;;;5085301;28;20371;-73
2021/10/05 01:44:21;;;;;;;3.20;1.75;;;12.80;75.40;;;;;;5103556;28;20027;-72
2021/10/05 01:46:49;;;;;;;4.03;1.58;;;12.90;75.50;;;;;;5084702;28;20097;-72
2021/10/05 01:49:22;;;;;;;3.15;1.58;;;12.80;75.50;;;;;;5106799;28;20367;-72
2021/10/05 01:51:48;;;;;;;2.75;1.50;;;12.80;75.60;;;;;;5085190;28;20081;-74
2021/10/05 01:54:15;;;;;;;4.80;1.70;;;12.80;75.60;;;;;;5100085;28;20532;-72
2021/10/05 01:56:41;;;;;;;3.03;1.67;;;12.80;75.70;;;;;;5107010;28;20454;-71
2021/10/05 01:59:07;;;;;;;2.55;1.50;;;12.80;75.80;;;;;;5102216;28;20081;-71
2021/10/05 02:01:33;;;;;;;2.63;1.38;;;12.80;75.70;;;;;;5105723;28;20044;-71
2021/10/05 02:03:59;;;;;;;3.53;1.75;;;12.80;75.60;;;;;;5101635;28;20085;-71
2021/10/05 02:06:25;;;;;;;4.00;1.60;;;12.70;75.60;;;;;;5089708;28;20062;-71
2021/10/05 02:08:51;;;;;;;3.65;1.70;;;12.70;75.70;;;;;;5103081;28;20024;-73
2021/10/05 02:11:16;;;;;;;7.53;1.98;;;12.70;75.70;;;;;;5101275;28;20035;-72
2021/10/05 02:13:42;;;;;;;5.43;1.85;;;12.70;75.70;;;;;;5105605;28;20028;-73
2021/10/05 02:16:09;;;;;;;4.85;1.70;;;12.60;75.60;;;;;;5068986;28;20474;-73
2021/10/05 02:18:35;;;;;;;3.88;1.85;;;12.60;75.70;;;;;;5107383;28;20024;-72
2021/10/05 02:21:01;;;;;;;4.38;1.98;;;12.60;75.80;;;;;;5098436;28;20751;-72
2021/10/05 02:26:11;;;;;;;5.47;2.13;;;12.50;75.90;;;;;;5099802;28;20431;-73
2021/10/05 02:28:36;;;;;;;5.78;2.10;;;12.50;76.00;;;;;;5104759;28;20115;-74
2021/10/05 02:31:02;;;;;;;3.85;2.00;;;12.50;76.30;;;;;;5070855;28;20024;-72
2021/10/05 02:33:30;;;;;;;2.13;1.80;;;12.50;76.50;;;;;;5108167;28;20038;-72
2021/10/05 02:35:55;;;;;;;4.20;1.83;;;12.40;76.60;;;;;;5069608;28;20027;-73
2021/10/05 02:38:21;;;;;;;2.50;1.63;;;12.40;76.70;;;;;;5100625;28;20406;-74
2021/10/05 02:40:47;;;;;;;4.03;1.98;;;12.40;77.00;;;;;;5102625;28;20032;-74
2021/10/05 02:43:12;;;;;;;2.92;1.95;;;12.50;77.10;;;;;;5101984;28;20039;-74
2021/10/05 02:45:38;;;;;;;4.55;2.08;;;12.50;77.20;;;;;;5107683;28;20110;-73
2021/10/05 02:48:04;;;;;;;3.05;1.80;;;12.40;77.20;;;;;;5083595;28;20820;-73
2021/10/05 02:50:30;;;;;;;4.55;1.90;;;12.50;77.20;;;;;;5088958;28;20043;-72
2021/10/05 02:52:55;;;;;;;3.70;1.90;;;12.40;77.10;;;;;;5104727;28;20406;-74
2021/10/05 02:55:21;;;;;;;5.07;1.90;;;12.40;77.20;;;;;;5089478;28;20089;-72
2021/10/05 02:57:47;;;;;;;5.13;1.80;;;12.40;77.20;;;;;;5093464;28;20031;-73
2021/10/05 03:00:14;;;;;;;5.47;1.73;;;12.40;77.20;;;;;;5110527;28;20031;-73
2021/10/05 03:02:40;;;;;;;4.25;1.75;;;12.40;77.20;;;;;;5107615;28;20028;-74
2021/10/05 03:05:05;;;;;;;3.83;2.50;;;12.40;77.10;;;;;;5088002;28;20028;-73
2021/10/05 03:07:31;;;;;;;2.55;1.80;;;12.40;77.10;;;;;;5088583;28;20027;-73
2021/10/05 03:09:57;;;;;;;4.10;2.47;;;12.40;77.20;;;;;;5108138;28;20047;-73
2021/10/05 03:12:24;;;;;;;4.32;2.15;;;12.40;77.20;;;;;;5110449;28;20035;-73
2021/10/05 03:14:50;;;;;;;3.30;1.80;;;12.30;77.80;;;;;;5075666;28;20115;-74
2021/10/05 03:17:16;;;;;;;3.25;2.10;;;12.30;77.20;;;;;;5110430;28;20114;-74
2021/10/05 03:19:41;;;;;;;4.72;2.00;;;12.30;77.10;;;;;;5106965;28;20096;-73
2021/10/05 03:22:07;;;;;;;4.25;2.10;;;12.30;77.20;;;;;;5105963;28;20028;-73
2021/10/05 03:24:33;;;;;;;5.03;2.17;;;12.20;77.20;;;;;;5107947;28;20024;-74
2021/10/05 03:26:59;;;;;;;4.15;2.30;;;12.20;77.40;;;;;;5099519;28;20043;-73
2021/10/05 03:29:24;;;;;;;5.53;2.65;;;12.20;77.50;;;;;;5111077;28;20043;-74
2021/10/05 03:31:50;;;;;;;4.35;2.30;;;12.20;77.80;;;;;;5093074;28;20035;-74
2021/10/05 03:34:16;;;;;;;4.07;2.17;;;12.20;78.00;;;;;;5109723;28;20076;-74
2021/10/05 03:36:41;;;;;;;4.55;2.28;;;12.10;78.20;;;;;;5111219;28;20421;-73
2021/10/05 03:39:07;;;;;;;2.63;2.17;;;12.20;78.40;;;;;;5106752;28;20027;-74
2021/10/05 03:41:33;;;;;;;4.18;2.25;;;12.20;78.60;;;;;;5070761;28;20077;-72
2021/10/05 03:43:59;;;;;;;3.63;2.30;;;12.20;78.60;;;;;;5109380;28;20051;-72
2021/10/05 03:46:24;;;;;;;3.97;2.20;;;12.20;78.80;;;;;;5079527;28;20490;-73
2021/10/05 03:48:50;;;;;;;4.22;2.53;;;12.20;78.80;;;;;;5073061;28;20039;-73
2021/10/05 03:51:16;;;;;;;5.40;2.35;;;12.20;79.10;;;;;;5087878;28;20418;-74
2021/10/05 03:53:41;;;;;;;5.82;3.00;;;12.20;79.40;;;;;;5073258;28;20130;-71
2021/10/05 03:56:07;;;;;;;3.25;2.70;;;12.20;79.50;;;;;;5108381;28;20447;-71
2021/10/05 03:58:33;;;;;;;6.07;2.78;;;12.20;79.50;;;;;;5092356;28;20046;-72
2021/10/05 04:00:59;;;;;;;3.58;2.88;;;12.20;79.60;;;;;;5072971;28;20359;-72
2021/10/05 04:03:24;;;;;;;3.58;2.80;;;12.20;79.70;;;;;;5110476;28;20411;-72
2021/10/05 04:05:52;;;;;;;4.47;3.03;;;12.20;79.80;;;;;;5109026;28;20028;-72
2021/10/05 04:08:18;;;;;;;4.65;2.95;;;12.20;79.90;;;;;;5104384;28;20036;-72
2021/10/05 04:10:44;;;;;;;4.80;2.55;;;12.20;79.90;;;;;;5086293;28;20034;-72
2021/10/05 04:13:10;;;;;;;6.32;2.78;;;12.20;80.00;;;;;;5087817;28;20027;-71
2021/10/05 04:15:35;;;;;;;5.63;3.13;;;12.20;80.30;;;;;;5069456;28;20054;-72
2021/10/05 04:18:02;;;;;;;4.72;3.00;;;12.20;80.50;;;;;;5104574;28;20032;-71
2021/10/05 04:20:28;;;;;;;3.42;2.85;;;12.20;80.60;;;;;;5092531;28;20492;-72
2021/10/05 04:22:55;;;;;;;4.47;2.83;;;12.20;80.60;;;;;;5104862;28;20032;-73
2021/10/05 04:25:20;;;;;;;4.45;3.10;;;12.20;80.80;;;;;;5108653;28;20024;-74
2021/10/05 04:27:46;;;;;;;6.80;2.88;;;12.20;80.80;;;;;;5102267;28;20148;-74
2021/10/05 04:30:13;;;;;;;4.00;2.70;;;12.20;80.80;;;;;;5103426;28;20040;-72
2021/10/05 04:32:39;;;;;;;5.35;2.83;;;12.20;80.80;;;;;;5079657;28;20028;-72
2021/10/05 04:35:06;;;;;;;4.35;2.72;;;12.20;80.90;;;;;;5108985;28;20036;-74
2021/10/05 04:37:32;;;;;;;5.43;3.13;;;12.20;80.80;;;;;;5107150;28;20059;-73
2021/10/05 04:39:57;;;;;;;6.68;3.30;;;12.20;80.90;;;;;;5106575;28;20043;-71
2021/10/05 04:42:24;;;;;;;5.63;3.10;;;12.20;81.00;;;;;;5073657;28;20043;-73
2021/10/05 04:44:50;;;;;;;4.43;3.20;;;12.20;80.90;;;;;;5091691;28;20039;-73
2021/10/05 04:47:16;;;;;;;5.03;3.08;;;12.20;80.90;;;;;;5108063;27;20036;-72
2021/10/05 04:49:42;;;;;;;5.03;3.10;;;12.20;80.90;;;;;;5102258;28;20064;-71
2021/10/05 04:52:08;;;;;;;5.75;3.20;;;12.20;80.90;;;;;;5107345;28;20096;-73
2021/10/05 04:54:33;;;;;;;5.50;3.47;;;12.20;80.90;;;;;;5090678;28;20073;-74
2021/10/05 04:56:59;;;;;;;6.07;3.38;;;12.20;81.20;;;;;;5086212;28;20116;-72
2021/10/05 04:59:25;;;;;;;5.07;2.97;;;12.10;81.10;;;;;;5105759;28;20040;-72
2021/10/05 05:01:51;;;;;;;5.00;3.40;;;12.10;81.20;;;;;;5087588;28;20113;-72
2021/10/05 05:04:16;;;;;;;4.72;3.72;;;12.10;81.30;;;;;;5109055;28;20042;-74
2021/10/05 05:06:43;;;;;;;6.82;3.95;;;12.10;81.40;;;;;;5108756;28;20040;-74
2021/10/05 05:09:08;;;;;;;4.53;3.63;;;12.10;81.50;;;;;;5087389;28;20036;-74
2021/10/05 05:11:34;;;;;;;6.00;4.00;;;12.10;81.60;;;;;;5108002;28;20080;-74
2021/10/05 05:14:07;;;;;;;4.78;3.53;;;12.10;81.60;;;;;;5102611;28;20039;-74
2021/10/05 05:16:38;;;;;;;4.70;3.60;;;12.10;81.50;;;;;;5103702;28;20031;-73
2021/10/05 05:19:05;;;;;;;4.68;3.65;;;12.10;81.40;;;;;;5102978;28;20027;-74
2021/10/05 05:21:32;;;;;;;8.00;4.18;;;12.10;81.40;;;;;;5107073;28;20038;-72
2021/10/05 05:23:58;;;;;;;6.63;4.30;;;12.10;81.50;;;;;;5105701;28;20845;-73
2021/10/05 05:26:24;;;;;;;7.00;4.30;;;12.10;81.50;;;;;;5086567;28;20031;-74
2021/10/05 05:28:50;;;;;;;5.38;4.20;;;12.10;81.40;;;;;;5102423;28;20089;-73
2021/10/05 05:31:16;;;;;;;5.80;4.72;;;12.10;81.40;;;;;;5104018;28;20059;-71
2021/10/05 05:33:42;;;;;;;6.70;5.20;;;12.10;81.50;;;;;;5086423;28;20489;-71
2021/10/05 05:36:08;;;;;;;8.95;5.38;;;12.10;81.50;;;;;;5100191;28;20030;-73
2021/10/05 05:38:33;;;;;;;6.60;5.40;;;12.10;81.40;;;;;;5082719;28;20090;-74
2021/10/05 05:40:59;;;;;;;6.80;5.57;;;12.10;81.40;;;;;;5102338;28;20059;-73
2021/10/05 05:43:25;;;;;;;8.05;5.80;;;12.10;81.40;;;;;;5109607;28;20067;-73
2021/10/05 05:45:50;;;;;;;7.95;6.05;;;12.10;81.40;;;;;;5103730;28;20474;-73
2021/10/05 05:48:16;;;;;;;8.75;6.43;;;12.00;81.40;;;;;;5080570;28;20044;-73
2021/10/05 05:50:42;;;;;;;7.20;5.95;;;12.00;81.40;;;;;;5086393;28;20055;-73
2021/10/05 05:53:08;;;;;;;8.63;5.78;;;12.00;81.40;;;;;;5089452;28;20204;-73
2021/10/05 05:55:34;;;;;;;9.05;6.53;;;12.00;81.50;;;;;;5109597;28;20126;-74
2021/10/05 05:58:08;;;;;;;7.68;6.10;;;12.00;81.50;;;;;;5085319;28;20028;-72
2021/10/05 06:00:34;;;;;;;10.68;6.97;;;12.00;81.50;;;;;;5083166;28;20024;-72
2021/10/05 06:03:00;;;;;;;10.38;7.13;;;12.00;81.60;;;;;;5087061;28;20031;-72
2021/10/05 06:05:25;;;;;;;9.20;6.90;;;12.00;81.60;;;;;;5100716;28;20652;-72
2021/10/05 06:07:51;;;;;;;12.40;7.55;;;12.00;81.60;;;;;;5105490;28;20035;-73
2021/10/05 06:10:17;;;;;;;9.75;7.25;;;12.00;81.70;;;;;;5067048;28;20118;-74
2021/10/05 06:12:42;;;;;;;10.77;7.28;;;12.00;81.90;;;;;;5104501;28;20028;-74
2021/10/05 06:15:12;;;;;;;10.10;7.20;;;12.00;82.00;;;;;;5082349;28;20396;-72
2021/10/05 06:17:39;;;;;;;9.13;6.35;;;12.00;82.10;;;;;;5104472;28;20012;-73
2021/10/05 06:20:20;;;;;;;11.30;7.32;;;12.00;82.10;;;;;;5104719;28;20398;-72
2021/10/05 06:22:45;;;;;;;8.02;6.93;;;12.00;82.30;;;;;;5084347;28;20035;-72
2021/10/05 06:25:15;;;;;;;9.75;6.80;;;12.00;82.20;;;;;;5106632;28;20036;-72
2021/10/05 06:27:41;;;;;;;7.40;6.50;;;11.90;82.30;;;;;;5090095;28;20450;-72
2021/10/05 06:30:08;;;;;;;8.98;7.10;;;11.90;82.40;;;;;;5086664;28;20381;-73
2021/10/05 06:32:34;;;;;;;6.45;5.80;;;11.90;82.50;;;;;;5093485;28;20020;-71
2021/10/05 06:35:00;;;;;;;5.93;5.35;;;11.90;83.20;;;;;;5094653;28;20038;-72
2021/10/05 06:37:26;;;;;;;8.25;6.05;;;11.90;82.50;;;;;;5086396;28;20537;-74
2021/10/05 06:39:52;;;;;;;8.73;6.15;;;12.00;82.60;;;;;;5091063;28;20038;-73
2021/10/05 06:42:18;;;;;;;11.73;6.32;;;11.90;82.60;;;;;;5091066;28;20474;-74
2021/10/05 06:44:44;;;;;;;9.13;6.65;;;12.00;82.80;;;;;;5070764;28;20035;-72
2021/10/05 06:47:10;;;;;;;10.77;6.68;;;12.00;82.90;;;;;;5102761;28;20108;-73
2021/10/05 06:49:36;;;;;;;7.85;6.40;;;12.00;83.00;;;;;;5085517;28;20123;-73
2021/10/05 06:52:03;;;;;;;7.05;5.65;;;12.00;82.90;;;;;;5109350;28;20109;-73
2021/10/05 06:54:30;;;;;;;6.68;6.05;;;12.00;83.00;;;;;;5107669;28;20027;-73
2021/10/05 06:56:56;;;;;;;7.82;6.20;;;12.00;83.10;;;;;;5111330;28;20024;-72
2021/10/05 06:59:22;;;;;;;6.85;6.18;;;12.00;83.10;;;;;;5072639;28;20042;-73
2021/10/05 07:01:48;;;;;;;6.80;5.93;;;12.10;83.20;;;;;;5106797;28;20036;-72
2021/10/05 07:04:14;;;;;;;7.10;5.32;;;12.10;83.20;;;;;;5105110;28;20032;-71
2021/10/05 07:06:40;;;;;;;7.05;6.13;;;12.10;83.40;;;;;;5085072;28;20043;-72
2021/10/05 07:09:06;;;;;;;8.18;6.30;;;12.10;83.40;;;;;;5069227;28;20485;-72
2021/10/05 07:11:33;;;;;;;7.43;5.82;;;12.20;83.50;;;;;;5090143;28;20051;-72
2021/10/05 07:13:59;;;;;;;8.85;4.93;;;12.20;83.30;;;;;;5074547;28;20024;-72
2021/10/05 07:16:24;;;;;;;7.28;4.95;;;12.20;83.30;;;;;;5106651;27;20027;-74
2021/10/05 07:18:50;;;;;;;7.97;4.60;;;12.20;83.60;;;;;;5103730;28;20604;-74
2021/10/05 07:21:16;;;;;;;5.78;5.05;;;12.30;83.70;;;;;;5088866;28;20451;-71
2021/10/05 07:23:42;;;;;;;4.75;4.03;;;12.30;83.70;;;;;;5090575;28;20519;-73
2021/10/05 07:26:08;;;;;;;6.80;4.80;;;12.30;83.80;;;;;;5110710;28;20054;-74
2021/10/05 07:28:34;;;;;;;7.70;4.65;;;12.40;83.80;;;;;;5102824;28;20076;-74
2021/10/05 07:31:00;;;;;;;6.07;4.85;;;12.40;83.80;;;;;;5101390;28;20027;-74
2021/10/05 07:33:27;;;;;;;6.22;5.03;;;12.50;83.80;;;;;;5088167;28;20063;-74
2021/10/05 07:35:53;;;;;;;6.28;4.68;;;12.50;83.90;;;;;;5085827;28;20051;-73
2021/10/05 07:38:19;;;;;;;5.55;4.95;;;12.60;83.80;;;;;;5105244;28;20416;-74
2021/10/05 07:40:45;;;;;;;7.15;4.85;;;12.70;83.90;;;;;;5085901;28;20127;-73
2021/10/05 07:43:10;;;;;;;7.00;4.18;;;12.80;83.80;;;;;;5105370;28;20107;-73
2021/10/05 07:45:37;;;;;;;5.75;4.63;;;12.80;83.60;;;;;;5106628;28;20032;-74
2021/10/05 07:48:04;;;;;;;6.60;4.75;;;12.80;83.50;;;;;;5073528;28;20028;-73
2021/10/05 07:50:31;;;;;;;8.50;4.68;;;12.90;83.20;;;;;;5087978;28;20103;-72
2021/10/05 07:53:01;;;;;;;6.13;4.53;;;12.90;83.20;;;;;;5087541;28;20055;-72
2021/10/05 07:55:32;;;;;;;6.80;4.65;;;12.90;83.30;;;;;;5089874;28;20080;-71
2021/10/05 07:57:58;;;;;;;5.82;4.18;;;12.90;83.20;;;;;;5103778;28;20425;-72
2021/10/05 08:00:24;;;;;;;6.82;4.18;;;12.90;83.30;;;;;;5084853;28;20032;-72
2021/10/05 08:02:50;;;;;;;6.75;4.30;;;12.90;83.20;;;;;;5086233;28;20046;-71
2021/10/05 08:05:16;;;;;;;5.95;4.20;;;12.90;83.20;;;;;;5108842;28;20027;-71
2021/10/05 08:07:45;;;;;;;5.20;4.15;;;12.90;83.20;;;;;;5102238;28;20047;-72
2021/10/05 08:10:12;;;;;;;5.63;4.30;;;12.90;83.20;;;;;;5088329;28;20513;-72
2021/10/05 08:12:38;;;;;;;4.90;4.25;;;13.00;83.20;;;;;;5108981;28;20123;-72
2021/10/05 08:15:04;;;;;;;4.60;4.03;;;13.00;83.30;;;;;;5091249;28;20115;-71
2021/10/05 08:17:30;;;;;;;5.78;4.50;;;13.00;83.30;;;;;;5088528;28;20115;-72
2021/10/05 08:19:56;;;;;;;6.05;4.03;;;13.00;83.30;;;;;;5105469;28;20107;-72
2021/10/05 08:22:22;;;;;;;5.78;4.32;;;13.00;83.30;;;;;;5082695;28;20122;-73
2021/10/05 08:24:48;;;;;;;7.43;4.30;;;13.10;83.30;;;;;;5091098;28;20541;-73
2021/10/05 08:27:13;;;;;;;5.18;4.00;;;13.20;83.10;;;;;;5108657;28;20103;-73
2021/10/05 08:29:42;;;;;;;5.43;4.10;;;13.30;83.00;;;;;;5102068;28;20027;-72
2021/10/05 08:32:08;;;;;;;7.35;4.35;;;13.30;82.80;;;;;;5107390;28;20036;-71
2021/10/05 08:34:35;;;;;;;6.47;4.20;;;13.40;82.80;;;;;;5108619;28;20051;-73
2021/10/05 08:37:01;;;;;;;7.65;4.20;;;13.40;83.20;;;;;;5108212;28;20497;-72
2021/10/05 08:39:26;;;;;;;7.30;4.35;;;13.60;82.70;;;;;;5078762;28;20028;-73
2021/10/05 08:41:52;;;;;;;5.90;5.07;;;13.60;82.20;;;;;;5101803;28;20534;-72
2021/10/05 08:44:20;;;;;;;6.72;4.50;;;13.70;82.20;;;;;;5087405;28;20027;-73
2021/10/05 08:46:46;;;;;;;4.90;3.92;;;13.70;81.40;;;;;;5099010;28;20135;-73
2021/10/05 08:49:12;;;;;;;5.68;4.90;;;13.90;81.60;;;;;;5104796;28;20028;-73
2021/10/05 08:51:38;;;;;;;6.45;4.60;;;14.00;81.10;;;;;;5099221;28;20068;-74
2021/10/05 08:54:05;;;;;;;7.55;4.47;;;14.10;80.60;;;;;;5096435;28;20371;-73
2021/10/05 08:56:30;;;;;;;6.32;4.22;;;14.10;80.30;;;;;;5056470;28;20024;-71
2021/10/05 08:58:56;;;;;;;4.25;3.33;;;14.20;80.70;;;;;;5099751;28;20409;-73
2021/10/05 09:01:22;;;;;;;9.05;4.25;;;14.30;80.30;;;;;;5085847;28;20040;-71
2021/10/05 09:03:55;;;;;;;6.00;4.03;;;14.30;80.30;;;;;;5102718;28;20090;-73
2021/10/05 09:06:23;;;;;;;5.30;3.80;;;14.40;79.90;;;;;;5083804;28;20066;-70
2021/10/05 09:08:50;;;;;;;5.35;3.60;;;14.50;80.00;;;;;;5103443;28;20123;-70
2021/10/05 09:11:18;;;;;;;4.25;3.50;;;14.60;79.70;;;;;;5095735;28;20039;-71
2021/10/05 09:13:47;;;;;;;5.50;3.40;;;14.70;79.60;;;;;;5098505;28;20059;-71
2021/10/05 09:16:26;;;;;;;5.93;3.22;;;14.80;79.10;;;;;;5101576;28;20012;-72
2021/10/05 09:19:03;;;;;;;7.70;3.58;;;15.00;79.10;;;;;;5087299;28;20030;-74
2021/10/05 09:21:31;;;;;;;4.68;2.95;;;15.00;78.10;;;;;;5102343;28;20028;-71
2021/10/05 09:24:02;;;;;;;5.35;2.72;;;15.10;77.90;;;;;;5102761;28;20111;-73
2021/10/05 09:26:42;;;;;;;6.70;3.05;;;15.20;77.80;;;;;;5099699;28;20145;-73
2021/10/05 09:29:20;;;;;;;4.32;3.10;;;15.40;77.50;;;;;;5083726;28;20024;-73
2021/10/05 09:31:54;;;;;;;4.95;2.95;;;15.50;77.40;;;;;;5081704;28;20450;-73
2021/10/05 09:34:21;;;;;;;6.22;2.92;;;15.60;77.30;;;;;;5084332;28;20015;-74
2021/10/05 09:36:47;;;;;;;5.47;2.75;;;15.70;77.00;;;;;;5099762;28;20398;-74
2021/10/05 09:39:13;;;;;;;3.80;2.38;;;15.80;76.80;;;;;;5080457;28;20127;-72
2021/10/05 09:41:39;;;;;;;3.47;2.50;;;15.90;76.20;;;;;;5070121;28;20059;-71
2021/10/05 09:44:07;;;;;;;4.82;2.47;;;16.00;76.00;;;;;;5079517;28;20036;-72
2021/10/05 09:46:33;;;;;;;4.53;2.53;;;16.00;75.60;;;;;;5080351;28;20036;-72
2021/10/05 09:49:06;;;;;;;5.63;2.47;;;16.20;75.40;;;;;;5100393;28;20363;-73
2021/10/05 09:51:33;;;;;;;3.72;2.60;;;16.20;75.30;;;;;;5098089;28;20375;-73
2021/10/05 09:53:59;;;;;;;5.45;2.40;;;16.30;74.50;;;;;;5070040;28;20028;-74
2021/10/05 09:56:27;;;;;;;4.47;2.20;;;16.40;74.30;;;;;;5063839;28;20032;-74
2021/10/05 09:58:55;;;;;;;4.60;2.05;;;16.50;74.30;;;;;;5084522;28;20032;-73
2021/10/05 10:01:23;;;;;;;2.97;2.00;;;16.60;74.70;;;;;;5097555;28;20111;-74
2021/10/05 10:03:52;;;;;;;5.68;2.08;;;16.80;74.20;;;;;;5098589;28;20024;-74
2021/10/05 10:06:18;;;;;;;3.95;2.10;;;16.90;73.80;;;;;;5102143;28;20062;-73
2021/10/05 10:08:53;;;;;;;4.18;2.15;;;17.00;73.00;;;;;;5083493;28;20907;-73
2021/10/05 10:11:19;;;;;;;5.32;1.90;;;17.00;72.70;;;;;;5105252;28;20039;-73
2021/10/05 10:13:47;;;;;;;3.53;2.15;;;17.10;73.00;;;;;;5110245;28;20035;-74
2021/10/05 10:16:14;;;;;;;2.50;1.95;;;17.30;72.40;;;;;;5089050;28;20055;-71
2021/10/05 10:19:02;;;;;;;2.90;1.73;;;17.40;72.50;;;;;;5085333;28;20492;-72
2021/10/05 10:21:33;;;;;;;3.08;1.88;;;17.50;71.90;;;;;;5110465;28;20019;-72
2021/10/05 10:24:19;;;;;;;2.97;1.88;;;17.60;71.60;;;;;;5109329;28;20035;-71
2021/10/05 10:26:51;;;;;;;4.22;1.80;;;17.70;71.30;;;;;;5097453;28;20028;-72
2021/10/05 10:29:29;;;;;;;4.50;1.90;;;17.80;70.80;;;;;;5080509;28;20032;-72
2021/10/05 10:31:55;;;;;;;5.28;1.75;;;17.90;70.20;;;;;;5107099;28;20035;-72
2021/10/05 10:34:23;;;;;;;4.45;2.13;;;18.00;69.90;;;;;;5090218;28;20027;-72
2021/10/05 10:36:50;;;;;;;3.83;1.60;;;18.00;70.00;;;;;;5108771;28;20065;-72
2021/10/05 10:39:17;;;;;;;4.03;1.92;;;18.10;69.70;;;;;;5111407;28;20123;-72
2021/10/05 10:42:01;;;;;;;6.22;1.73;;;18.20;69.30;;;;;;5112450;28;20063;-72
2021/10/05 10:44:29;;;;;;;2.85;1.80;;;18.30;69.50;;;;;;5107696;28;20096;-72
2021/10/05 10:47:09;;;;;;;4.38;1.52;;;18.40;68.70;;;;;;5084507;28;20073;-72
2021/10/05 10:49:35;;;;;;;5.13;2.53;;;18.40;68.70;;;;;;5087235;28;20032;-73
2021/10/05 10:52:01;;;;;;;3.75;1.55;;;18.30;68.80;;;;;;5096877;28;20055;-74
2021/10/05 10:54:26;;;;;;;4.15;1.60;;;18.30;69.00;;;;;;5072588;28;20038;-73
2021/10/05 10:57:04;;;;;;;3.45;1.77;;;18.30;68.80;;;;;;5096565;28;20031;-73
2021/10/05 10:59:31;;;;;;;3.25;1.58;;;18.20;68.60;;;;;;5083867;28;20024;-73
2021/10/05 11:02:05;;;;;;;3.97;1.65;;;18.10;68.80;;;;;;5085165;28;20055;-73
2021/10/05 11:04:32;;;;;;;4.30;1.70;;;18.10;68.80;;;;;;5107280;28;20031;-73
2021/10/05 11:06:58;;;;;;;1.95;1.40;;;18.00;68.80;;;;;;5105047;28;20027;-73
2021/10/05 11:09:32;;;;;;;3.17;1.50;;;18.00;69.60;;;;;;5086020;28;20032;-73
2021/10/05 11:11:59;;;;;;;3.63;1.52;;;18.00;69.60;;;;;;5091587;28;20057;-73
2021/10/05 11:14:33;;;;;;;3.40;1.63;;;18.10;69.90;;;;;;5104985;28;20449;-74
2021/10/05 11:17:04;;;;;;;4.55;1.90;;;18.10;69.60;;;;;;5105407;28;20031;-74
2021/10/05 11:19:33;;;;;;;3.75;1.90;;;18.00;69.00;;;;;;5103021;28;20026;-74
2021/10/05 11:22:03;;;;;;;3.78;1.80;;;17.80;68.50;;;;;;5102677;28;20378;-72
2021/10/05 11:24:43;;;;;;;2.90;1.70;;;17.60;68.70;;;;;;5087297;28;20034;-72
2021/10/05 11:27:15;;;;;;;3.60;1.60;;;17.40;69.30;;;;;;5088326;28;20035;-71
2021/10/05 11:29:41;;;;;;;4.57;1.63;;;17.30;70.00;;;;;;5104656;28;20028;-71
2021/10/05 11:32:08;;;;;;;2.97;1.65;;;17.20;70.30;;;;;;5090423;28;20076;-71
2021/10/05 11:34:39;;;;;;;1.80;1.50;;;17.20;70.50;;;;;;5110152;28;20055;-71
2021/10/05 11:37:07;;;;;;;3.67;1.50;;;17.10;70.70;;;;;;5107519;28;20128;-70
2021/10/05 11:39:35;;;;;;;5.75;1.85;;;17.10;70.70;;;;;;5102830;28;20500;-72
2021/10/05 11:42:10;;;;;;;4.95;1.65;;;17.10;71.00;;;;;;5085634;28;20402;-71
2021/10/05 11:44:46;;;;;;;5.15;1.85;;;17.00;71.00;;;;;;5108503;28;20641;-74
2021/10/05 11:47:19;;;;;;;4.78;1.55;;;17.00;70.70;;;;;;5107848;28;20045;-73
2021/10/05 11:49:50;;;;;;;2.95;1.27;;;17.00;70.20;;;;;;5108048;28;20057;-72
2021/10/05 11:52:22;;;;;;;2.42;1.50;;;17.00;70.80;;;;;;5105840;28;20118;-71
2021/10/05 11:54:49;;;;;;;3.70;1.50;;;17.00;70.80;;;;;;5103212;28;20054;-71
2021/10/05 11:57:18;;;;;;;6.35;1.95;;;17.10;71.00;;;;;;5087572;28;20469;-72
2021/10/05 11:59:45;;;;;;;6.20;1.70;;;17.10;70.80;;;;;;5102835;28;20038;-71
2021/10/05 12:02:13;;;;;;;2.42;1.40;;;17.10;70.70;;;;;;5091276;28;20038;-70
2021/10/05 12:04:44;;;;;;;3.15;1.40;;;17.20;70.80;;;;;;5108564;28;20052;-71
2021/10/05 12:07:27;;;;;;;4.88;1.65;;;17.20;70.80;;;;;;5104845;28;20031;-71
2021/10/05 12:10:07;;;;;;;3.22;1.40;;;17.20;70.60;;;;;;5088435;28;20040;-73
2021/10/05 12:12:38;;;;;;;5.13;1.33;;;17.30;70.80;;;;;;5113624;27;20070;-72
2021/10/05 12:15:15;;;;;;;6.32;1.58;;;17.30;71.10;;;;;;5108832;28;20031;-73
2021/10/05 12:17:42;;;;;;;3.97;1.60;;;17.30;70.50;;;;;;5109406;28;20110;-70
2021/10/05 12:20:11;;;;;;;4.50;1.80;;;17.30;70.80;;;;;;5107295;28;20016;-73
2021/10/05 12:22:42;;;;;;;6.32;1.65;;;17.30;70.90;;;;;;5108193;28;20034;-71
2021/10/05 12:25:14;;;;;;;6.93;1.42;;;17.30;71.10;;;;;;5088459;28;20035;-71
2021/10/05 12:27:42;;;;;;;5.50;1.60;;;17.20;70.80;;;;;;5080927;28;20036;-71
2021/10/05 12:30:11;;;;;;;3.90;1.60;;;17.20;71.20;;;;;;5084430;28;20080;-74
2021/10/05 12:32:43;;;;;;;7.00;1.52;;;17.20;71.50;;;;;;5089351;28;20024;-71
2021/10/05 12:35:38;;;;;;;2.13;1.30;;;17.20;71.10;;;;;;5105305;28;20028;-71
2021/10/05 12:38:10;;;;;;;8.95;2.03;;;17.10;71.10;;;;;;5085874;28;20035;-71
2021/10/05 12:40:49;;;;;;;6.32;1.52;;;17.10;71.50;;;;;;5105915;28;20027;-74
2021/10/05 12:43:23;;;;;;;3.47;1.73;;;17.10;71.70;;;;;;5106654;28;20081;-73
2021/10/05 12:45:54;;;;;;;4.85;2.00;;;17.10;71.80;;;;;;5090036;28;20427;-74
2021/10/05 12:48:41;;;;;;;3.85;1.23;;;17.10;72.30;;;;;;5089037;28;20039;-74
2021/10/05 12:51:10;;;;;;;6.22;1.17;;;17.10;71.90;;;;;;5085892;28;20033;-73